createdAt,value
2024-02-03T00:02:00.571Z,101546.19
2024-02-03T00:04:31.642Z,101548.78
2024-02-03T00:07:05.013Z,101550.41
2024-02-03T00:09:36.186Z,101552.06
2024-02-03T00:12:11.915Z,101543.25
2024-02-03T00:14:42.848Z,101550.09
2024-02-03T00:17:13.172Z,101520.66
2024-02-03T00:19:43.936Z,101540.19
2024-02-03T00:22:16.820Z,101529.44
2024-02-03T00:24:47.488Z,101542.31
2024-02-03T00:27:18.290Z,101543.59
2024-02-03T00:29:49.237Z,101536.13
2024-02-03T00:32:19.982Z,101539.03
2024-02-03T00:34:50.625Z,101522.94
2024-02-03T00:37:24.010Z,101532.53
2024-02-03T00:39:54.256Z,101515.94
2024-02-03T00:42:24.884Z,101525.69
2024-02-03T00:44:55.339Z,101504.88
2024-02-03T00:47:25.652Z,101513.00
2024-02-03T00:49:59.100Z,101511.88
2024-02-03T00:52:33.704Z,101507.47
2024-02-03T00:55:05.691Z,101519.69
2024-02-03T00:57:35.725Z,101505.84
2024-02-03T01:00:08.197Z,101513.34
2024-02-03T01:02:38.352Z,101492.16
2024-02-03T01:05:09.172Z,101494.44
2024-02-03T01:07:41.831Z,101505.84
2024-02-03T01:10:13.548Z,101512.38
2024-02-03T01:12:44.301Z,101509.41
2024-02-03T01:15:14.776Z,101498.03
2024-02-03T01:17:45.380Z,101516.25
2024-02-03T01:20:16.992Z,101514.00
2024-02-03T01:22:49.712Z,101514.00
2024-02-03T01:25:20.385Z,101498.50
2024-02-03T01:27:51.251Z,101515.63
2024-02-03T01:30:22.459Z,101499.34
2024-02-03T01:32:52.882Z,101503.38
2024-02-03T01:35:24.193Z,101502.25
2024-02-03T01:37:57.790Z,101502.91
2024-02-03T01:40:28.228Z,101493.16
2024-02-03T01:43:01.992Z,101498.34
2024-02-03T01:45:41.603Z,101508.78
2024-02-03T01:48:14.924Z,101472.94
2024-02-03T01:50:50.213Z,101495.75
2024-02-03T01:53:24.248Z,101494.94
2024-02-03T01:55:57.343Z,101485.47
2024-02-03T01:58:27.744Z,101487.94
2024-02-03T02:00:59.582Z,101476.19
2024-02-03T02:03:30.252Z,101486.63
2024-02-03T02:06:00.542Z,101485.81
2024-02-03T02:08:41.933Z,101470.97
2024-02-03T02:11:13.960Z,101489.88
2024-02-03T02:13:44.440Z,101494.41
2024-02-03T02:16:14.941Z,101500.44
2024-02-03T02:18:45.823Z,101499.31
2024-02-03T02:21:20.499Z,101485.97
2024-02-03T02:23:52.413Z,101473.44
2024-02-03T02:26:22.655Z,101488.88
2024-02-03T02:28:53.112Z,101468.06
2024-02-03T02:31:23.275Z,101468.38
2024-02-03T02:33:56.200Z,101498.97
2024-02-03T02:36:30.264Z,101493.59
2024-02-03T02:39:00.878Z,101483.69
2024-02-03T02:41:34.396Z,101494.75
2024-02-03T02:44:04.350Z,101490.50
2024-02-03T02:46:34.533Z,101475.38
2024-02-03T02:49:09.519Z,101484.34
2024-02-03T02:51:42.513Z,101480.13
2024-02-03T02:54:13.029Z,101476.53
2024-02-03T02:56:43.285Z,101490.22
2024-02-03T02:59:13.893Z,101484.84
2024-02-03T03:01:44.525Z,101467.44
2024-02-03T03:04:15.301Z,101495.72
2024-02-03T03:06:48.320Z,101472.28
2024-02-03T03:09:18.317Z,101487.28
2024-02-03T03:11:48.456Z,101480.75
2024-02-03T03:14:21.586Z,101484.50
2024-02-03T03:16:52.584Z,101472.28
2024-02-03T03:19:22.741Z,101489.53
2024-02-03T03:21:55.727Z,101487.09
2024-02-03T03:24:25.602Z,101479.09
2024-02-03T03:26:55.982Z,101443.94
2024-02-03T03:29:25.981Z,101487.22
2024-02-03T03:31:56.283Z,101481.06
2024-02-03T03:34:26.454Z,101476.66
2024-02-03T03:36:59.602Z,101478.44
2024-02-03T03:39:29.861Z,101478.78
2024-02-03T03:41:59.960Z,101482.69
2024-02-03T03:44:33.050Z,101468.03
2024-02-03T03:47:00.815Z,101471.78
2024-02-03T03:49:34.233Z,101482.19
2024-02-03T03:52:08.037Z,101483.34
2024-02-03T03:54:38.312Z,101478.13
2024-02-03T03:57:08.337Z,101479.94
2024-02-03T03:59:38.563Z,101486.09
2024-02-03T04:02:09.308Z,101481.72
2024-02-03T04:04:41.312Z,101451.56
2024-02-03T04:07:13.894Z,101477.94
2024-02-03T04:09:50.237Z,101471.59
2024-02-03T04:12:20.668Z,101470.31
2024-02-03T04:14:53.293Z,101478.59
2024-02-03T04:17:23.882Z,101465.75
2024-02-03T04:19:54.028Z,101475.69
2024-02-03T04:22:27.410Z,101479.94
2024-02-03T04:24:58.257Z,101477.78
2024-02-03T04:27:28.458Z,101465.44
2024-02-03T04:29:58.502Z,101467.06
2024-02-03T04:32:28.598Z,101483.69
2024-02-03T04:34:58.506Z,101472.94
2024-02-03T04:37:31.908Z,101465.28
2024-02-03T04:40:05.097Z,101461.41
2024-02-03T04:42:35.714Z,101474.09
2024-02-03T04:45:06.382Z,101460.41
2024-02-03T04:47:37.536Z,101467.25
2024-02-03T04:50:08.808Z,101466.13
2024-02-03T04:52:42.379Z,101461.22
2024-02-03T04:55:12.552Z,101470.34
2024-02-03T04:57:42.634Z,101474.91
2024-02-03T05:00:14.654Z,101478.47
2024-02-03T05:02:45.023Z,101468.38
2024-02-03T05:05:14.901Z,101453.38
2024-02-03T05:07:47.810Z,101465.78
2024-02-03T05:10:17.908Z,101461.53
2024-02-03T05:12:47.892Z,101460.41
2024-02-03T05:15:20.063Z,101452.41
2024-02-03T05:17:50.466Z,101473.91
2024-02-03T05:20:20.892Z,101468.69
2024-02-03T05:22:54.929Z,101468.69
2024-02-03T05:25:24.968Z,101464.63
2024-02-03T05:27:55.103Z,101451.25
2024-02-03T05:30:25.585Z,101459.56
2024-02-03T05:32:55.734Z,101465.13
2024-02-03T05:35:25.691Z,101454.72
2024-02-03T05:37:58.300Z,101446.09
2024-02-03T05:40:28.764Z,101450.63
2024-02-03T05:42:59.832Z,101432.72
2024-02-03T05:45:30.116Z,101447.69
2024-02-03T05:48:00.320Z,101419.06
2024-02-03T05:50:30.286Z,101447.69
2024-02-03T05:53:04.579Z,101439.72
2024-02-03T05:55:35.583Z,101430.59
2024-02-03T05:58:05.738Z,101422.47
2024-02-03T06:00:35.813Z,101428.16
2024-02-03T06:03:05.839Z,101434.38
2024-02-03T06:05:41.602Z,101437.47
2024-02-03T06:08:21.393Z,101431.28
2024-02-03T06:10:53.423Z,101423.78
2024-02-03T06:13:24.255Z,101432.75
2024-02-03T06:15:54.733Z,101417.59
2024-02-03T06:18:25.058Z,101421.00
2024-02-03T06:20:56.335Z,101410.09
2024-02-03T06:23:28.923Z,101425.56
2024-02-03T06:25:58.913Z,101427.03
2024-02-03T06:28:31.674Z,101418.09
2024-02-03T06:31:01.843Z,101408.50
2024-02-03T06:33:31.975Z,101414.03
2024-02-03T06:36:02.638Z,101429.16
2024-02-03T06:38:36.970Z,101412.88
2024-02-03T06:41:07.187Z,101430.78
2024-02-03T06:43:41.684Z,101425.72
2024-02-03T06:46:11.647Z,101425.59
2024-02-03T06:48:41.593Z,101434.50
2024-02-03T06:51:12.242Z,101436.31
2024-02-03T06:53:44.963Z,101449.16
2024-02-03T06:56:15.046Z,101440.69
2024-02-03T06:58:45.094Z,101438.59
2024-02-03T07:01:15.468Z,101437.44
2024-02-03T07:03:45.998Z,101437.78
2024-02-03T07:06:16.188Z,101446.59
2024-02-03T07:08:50.231Z,101440.72
2024-02-03T07:11:20.353Z,101436.31
2024-02-03T07:13:51.076Z,101434.03
2024-02-03T07:16:21.218Z,101440.22
2024-02-03T07:18:51.191Z,101452.94
2024-02-03T07:21:21.597Z,101448.53
2024-02-03T07:23:54.559Z,101450.97
2024-02-03T07:26:24.727Z,101471.00
2024-02-03T07:28:55.246Z,101439.75
2024-02-03T07:31:33.330Z,101457.81
2024-02-03T07:34:03.911Z,101415.63
2024-02-03T07:36:38.579Z,101455.53
2024-02-03T07:39:11.344Z,101439.06
2024-02-03T07:41:41.556Z,101436.00
2024-02-03T07:44:11.707Z,101449.66
2024-02-03T07:46:42.478Z,101427.34
2024-02-03T07:49:12.854Z,101412.88
2024-02-03T07:51:43.542Z,101458.31
2024-02-03T07:54:16.294Z,101454.06
2024-02-03T07:56:46.468Z,101456.97
2024-02-03T07:59:16.623Z,101453.72
2024-02-03T08:01:48.340Z,101445.91
2024-02-03T08:04:18.537Z,101449.66
2024-02-03T08:06:48.782Z,101441.81
2024-02-03T08:09:21.535Z,101397.38
2024-02-03T08:11:52.502Z,101439.53
2024-02-03T08:14:22.505Z,101438.56
2024-02-03T08:16:52.653Z,101441.66
2024-02-03T08:19:23.214Z,101446.22
2024-02-03T08:21:53.737Z,101449.78
2024-02-03T08:24:26.678Z,101432.53
2024-02-03T08:26:57.467Z,101457.28
2024-02-03T08:29:27.482Z,101456.78
2024-02-03T08:32:09.234Z,101448.47
2024-02-03T08:34:39.310Z,101448.81
2024-02-03T08:37:09.215Z,101451.72
2024-02-03T08:42:11.722Z,101447.81
2024-02-03T08:44:41.543Z,101454.38
2024-02-03T08:47:13.922Z,101453.19
2024-02-03T08:49:53.952Z,101465.25
2024-02-03T08:52:24.044Z,101458.91
2024-02-03T08:54:54.165Z,101462.47
2024-02-03T08:57:24.109Z,101462.31
2024-02-03T08:59:54.409Z,101466.06
2024-02-03T09:02:26.903Z,101468.50
2024-02-03T09:04:56.700Z,101472.75
2024-02-03T09:07:26.505Z,101480.72
2024-02-03T09:09:57.823Z,101472.09
2024-02-03T09:12:28.506Z,101468.03
2024-02-03T09:14:58.609Z,101476.50
2024-02-03T09:17:31.342Z,101470.47
2024-02-03T09:20:01.305Z,101486.63
2024-02-03T09:22:31.177Z,101490.88
2024-02-03T09:25:01.222Z,101474.69
2024-02-03T09:27:31.414Z,101489.53
2024-02-03T09:30:01.330Z,101492.97
2024-02-03T09:32:33.789Z,101498.00
2024-02-03T09:35:04.208Z,101500.28
2024-02-03T09:40:09.016Z,101506.16
2024-02-03T09:42:40.156Z,101500.28
2024-02-03T09:45:10.879Z,101494.41
2024-02-03T09:47:43.967Z,101494.75
2024-02-03T09:50:14.236Z,101506.97
2024-02-03T09:52:46.428Z,101510.41
2024-02-03T09:55:17.596Z,101497.69
2024-02-03T09:57:50.487Z,101492.47
2024-02-03T10:00:22.480Z,101497.34
2024-02-03T10:02:54.905Z,101498.34
2024-02-03T10:05:32.001Z,101500.47
2024-02-03T10:08:07.526Z,101501.75
2024-02-03T10:13:13.366Z,101499.94
2024-02-03T10:15:43.684Z,101498.81
2024-02-03T10:18:17.070Z,101497.16
2024-02-03T10:20:47.310Z,101498.63
2024-02-03T10:23:17.512Z,101507.75
2024-02-03T10:25:48.994Z,101496.50
2024-02-03T10:28:19.590Z,101505.66
2024-02-03T10:30:50.227Z,101503.22
2024-02-03T10:33:22.753Z,101512.03
2024-02-03T10:35:53.373Z,101502.91
2024-02-03T10:38:23.187Z,101505.47
2024-02-03T10:40:53.398Z,101508.22
2024-02-03T10:43:24.809Z,101505.47
2024-02-03T10:45:56.775Z,101506.16
2024-02-03T10:48:30.158Z,101501.53
2024-02-03T10:51:05.810Z,101492.25
2024-02-03T10:53:38.810Z,101501.53
2024-02-03T10:56:13.184Z,101498.78
2024-02-03T10:58:43.739Z,101506.09
2024-02-03T11:01:19.239Z,101496.81
2024-02-03T11:03:54.128Z,101513.06
2024-02-03T11:06:28.062Z,101507.03
2024-02-03T11:09:13.740Z,101511.94
2024-02-03T11:11:44.854Z,101479.03
2024-02-03T11:14:16.586Z,101514.03
2024-02-03T11:16:46.897Z,101498.88
2024-02-03T11:19:19.520Z,101500.00
2024-02-03T11:21:49.614Z,101507.03
2024-02-03T11:24:19.418Z,101499.88
2024-02-03T11:26:58.368Z,101495.31
2024-02-03T11:29:28.846Z,101490.97
2024-02-03T11:32:02.437Z,101494.53
2024-02-03T11:34:37.149Z,101500.13
2024-02-03T11:37:10.422Z,101495.56
2024-02-03T11:39:41.931Z,101492.78
2024-02-03T11:42:12.817Z,101471.28
2024-02-03T11:44:54.654Z,101480.69
2024-02-03T11:47:25.660Z,101488.00
2024-02-03T11:49:58.503Z,101488.50
2024-02-03T11:52:28.763Z,101489.47
2024-02-03T11:54:58.565Z,101490.56
2024-02-03T11:57:28.936Z,101479.31
2024-02-03T12:00:03.823Z,101482.56
2024-02-03T12:02:35.295Z,101472.63
2024-02-03T12:05:13.117Z,101467.06
2024-02-03T12:07:45.417Z,101452.28
2024-02-03T12:10:17.077Z,101466.56
2024-02-03T12:12:47.197Z,101470.00
2024-02-03T12:15:17.576Z,101465.75
2024-02-03T12:17:50.324Z,101470.81
2024-02-03T12:20:32.162Z,101468.81
2024-02-03T12:23:02.269Z,101462.59
2024-02-03T12:25:32.439Z,101469.47
2024-02-03T12:28:03.018Z,101458.38
2024-02-03T12:30:37.269Z,101453.28
2024-02-03T12:33:08.625Z,101450.66
2024-02-03T12:35:41.581Z,101434.19
2024-02-03T12:38:12.054Z,101443.91
2024-02-03T12:40:41.879Z,101450.09
2024-02-03T12:43:11.750Z,101448.97
2024-02-03T12:45:41.808Z,101447.56
2024-02-03T12:48:11.854Z,101451.00
2024-02-03T12:50:44.942Z,101450.00
2024-02-03T12:53:15.594Z,101449.47
2024-02-03T12:55:46.873Z,101442.00
2024-02-03T12:58:17.976Z,101438.03
2024-02-03T13:00:48.168Z,101446.81
2024-02-03T13:03:18.161Z,101426.41
2024-02-03T13:05:50.844Z,101422.56
2024-02-03T13:08:21.203Z,101424.97
2024-02-03T13:10:51.063Z,101410.66
2024-02-03T13:13:20.837Z,101422.53
2024-02-03T13:15:50.845Z,101419.09
2024-02-03T13:18:20.759Z,101419.66
2024-02-03T13:20:53.709Z,101425.50
2024-02-03T13:23:23.593Z,101416.56
2024-02-03T13:25:53.421Z,101408.22
2024-02-03T13:28:23.221Z,101412.56
2024-02-03T13:30:53.162Z,101412.66
2024-02-03T13:33:23.071Z,101409.41
2024-02-03T13:35:56.384Z,101398.69
2024-02-03T13:38:26.489Z,101399.09
2024-02-03T13:40:56.492Z,101402.69
2024-02-03T13:43:26.270Z,101401.34
2024-02-03T13:45:56.099Z,101407.28
2024-02-03T13:48:26.464Z,101420.81
2024-02-03T13:50:59.661Z,101407.25
2024-02-03T13:53:29.695Z,101407.41
2024-02-03T13:56:01.365Z,101407.28
2024-02-03T13:58:31.171Z,101415.88
2024-02-03T14:01:01.288Z,101417.56
2024-02-03T14:03:31.824Z,101410.28
2024-02-03T14:06:04.424Z,101410.66
2024-02-03T14:08:34.537Z,101403.91
2024-02-03T14:11:04.291Z,101408.16
2024-02-03T14:13:34.310Z,101397.41
2024-02-03T14:16:04.378Z,101402.97
2024-02-03T14:18:34.487Z,101413.69
2024-02-03T14:21:07.158Z,101399.34
2024-02-03T14:23:37.280Z,101402.94
2024-02-03T14:26:07.766Z,101396.91
2024-02-03T14:28:37.594Z,101395.97
2024-02-03T14:31:07.982Z,101401.97
2024-02-03T14:33:38.154Z,101410.06
2024-02-03T14:36:11.152Z,101401.59
2024-02-03T14:38:42.748Z,101406.16
2024-02-03T14:41:12.710Z,101408.78
2024-02-03T14:43:43.600Z,101409.84
2024-02-03T14:46:13.417Z,101407.78
2024-02-03T14:48:43.396Z,101395.66
2024-02-03T14:51:16.085Z,101402.97
2024-02-03T14:53:45.885Z,101418.63
2024-02-03T14:56:15.746Z,101413.72
2024-02-03T14:58:45.544Z,101421.88
2024-02-03T15:01:15.492Z,101402.91
2024-02-03T15:03:45.592Z,101407.50
2024-02-03T15:06:18.397Z,101410.09
2024-02-03T15:08:48.490Z,101407.03
2024-02-03T15:11:18.640Z,101411.44
2024-02-03T15:13:48.426Z,101399.19
2024-02-03T15:16:18.297Z,101404.41
2024-02-03T15:18:48.349Z,101409.16
2024-02-03T15:21:20.953Z,101410.28
2024-02-03T15:23:50.798Z,101413.75
2024-02-03T15:26:21.420Z,101404.84
2024-02-03T15:28:51.327Z,101404.38
2024-02-03T15:31:21.343Z,101410.75
2024-02-03T15:33:51.368Z,101399.81
2024-02-03T15:36:24.420Z,101398.19
2024-02-03T15:38:54.340Z,101389.25
2024-02-03T15:41:24.228Z,101400.75
2024-02-03T15:43:54.121Z,101403.75
2024-02-03T15:46:33.551Z,101415.03
2024-02-03T15:49:10.053Z,101404.28
2024-02-03T15:51:42.892Z,101389.97
2024-02-03T15:54:12.944Z,101408.69
2024-02-03T15:56:43.312Z,101401.84
2024-02-03T15:59:15.267Z,101403.66
2024-02-03T16:01:45.325Z,101410.84
2024-02-03T16:04:15.427Z,101414.72
2024-02-03T16:06:48.038Z,101403.47
2024-02-03T16:09:18.083Z,101389.50
2024-02-03T16:11:48.629Z,101401.09
2024-02-03T16:14:18.801Z,101411.88
2024-02-03T16:16:48.997Z,101414.06
2024-02-03T16:19:19.433Z,101407.72
2024-02-03T16:21:52.062Z,101408.38
2024-02-03T16:24:21.978Z,101413.94
2024-02-03T16:26:52.234Z,101408.72
2024-02-03T16:29:22.291Z,101416.88
2024-02-03T16:31:52.094Z,101419.84
2024-02-03T16:34:23.187Z,101408.75
2024-02-03T16:36:55.835Z,101422.44
2024-02-03T16:39:27.453Z,101415.59
2024-02-03T16:41:57.593Z,101413.97
2024-02-03T16:44:27.400Z,101419.84
2024-02-03T16:46:57.234Z,101411.38
2024-02-03T16:49:27.265Z,101420.00
2024-02-03T16:52:00.909Z,101420.16
2024-02-03T16:54:31.001Z,101416.56
2024-02-03T16:57:00.782Z,101420.81
2024-02-03T16:59:30.723Z,101406.81
2024-02-03T17:02:00.687Z,101406.59
2024-02-03T17:04:30.709Z,101412.31
2024-02-03T17:07:03.202Z,101422.09
2024-02-03T17:09:34.026Z,101413.28
2024-02-03T17:12:04.002Z,101407.59
2024-02-03T17:14:34.394Z,101397.81
2024-02-03T17:17:04.189Z,101409.03
2024-02-03T17:19:34.193Z,101412.63
2024-02-03T17:22:07.153Z,101412.63
2024-02-03T17:24:37.109Z,101416.88
2024-02-03T17:27:07.433Z,101425.50
2024-02-03T17:29:37.191Z,101426.31
2024-02-03T17:32:07.677Z,101417.53
2024-02-03T17:34:39.267Z,101423.88
2024-02-03T17:37:11.936Z,101431.19
2024-02-03T17:39:41.828Z,101426.00
2024-02-03T17:42:11.670Z,101424.69
2024-02-03T17:44:41.629Z,101423.88
2024-02-03T17:47:12.127Z,101418.00
2024-02-03T17:49:42.253Z,101427.44
2024-02-03T17:52:14.759Z,101428.25
2024-02-03T17:54:48.213Z,101434.47
2024-02-03T17:57:18.415Z,101433.16
2024-02-03T17:59:48.407Z,101427.47
2024-02-03T18:02:19.974Z,101418.84
2024-02-03T18:04:49.919Z,101422.13
2024-02-03T18:07:22.801Z,101416.91
2024-02-03T18:09:53.245Z,101425.03
2024-02-03T18:12:23.150Z,101415.25
2024-02-03T18:14:53.030Z,101408.06
2024-02-03T18:17:22.941Z,101401.06
2024-02-03T18:19:52.890Z,101401.88
2024-02-03T18:22:25.510Z,101398.94
2024-02-03T18:24:55.469Z,101409.81
2024-02-03T18:27:25.609Z,101414.06
2024-02-03T18:29:55.534Z,101409.00
2024-02-03T18:32:25.627Z,101416.03
2024-02-03T18:34:55.428Z,101407.44
2024-02-03T18:37:27.862Z,101432.50
2024-02-03T18:39:57.944Z,101428.56
2024-02-03T18:42:27.757Z,101432.63
2024-02-03T18:44:58.046Z,101423.66
2024-02-03T18:47:27.913Z,101422.69
2024-02-03T18:49:57.806Z,101425.78
2024-02-03T18:52:31.158Z,101410.47
2024-02-03T18:55:01.133Z,101415.69
2024-02-03T18:57:31.687Z,101412.78
2024-02-03T19:00:01.472Z,101410.00
2024-02-03T19:02:31.489Z,101410.81
2024-02-03T19:05:02.044Z,101409.81
2024-02-03T19:07:34.780Z,101421.72
2024-02-03T19:10:04.997Z,101414.38
2024-02-03T19:12:34.952Z,101418.78
2024-02-03T19:15:06.045Z,101407.88
2024-02-03T19:17:39.598Z,101413.47
2024-02-03T19:20:12.523Z,101408.53
2024-02-03T19:22:44.982Z,101422.41
2024-02-03T19:25:15.037Z,101432.19
2024-02-03T19:27:45.111Z,101422.88
2024-02-03T19:30:17.130Z,101429.91
2024-02-03T19:32:48.035Z,101428.63
2024-02-03T19:35:18.656Z,101434.28
2024-02-03T19:37:51.064Z,101443.25
2024-02-03T19:40:21.740Z,101441.47
2024-02-03T19:42:51.614Z,101445.03
2024-02-03T19:45:21.663Z,101449.97
2024-02-03T19:47:51.532Z,101452.38
2024-02-03T19:50:24.733Z,101458.72
2024-02-03T19:52:59.124Z,101454.97
2024-02-03T19:55:29.139Z,101443.91
2024-02-03T19:57:59.144Z,101441.63
2024-02-03T20:00:29.469Z,101437.06
2024-02-03T20:02:59.265Z,101432.84
2024-02-03T20:05:29.164Z,101440.81
2024-02-03T20:08:02.202Z,101436.41
2024-02-03T20:10:33.787Z,101429.25
2024-02-03T20:13:05.044Z,101448.16
2024-02-03T20:15:34.968Z,101416.84
2024-02-03T20:18:05.122Z,101428.41
2024-02-03T20:20:35.425Z,101424.34
2024-02-03T20:23:07.916Z,101436.72
2024-02-03T20:25:38.704Z,101436.13
2024-02-03T20:28:09.084Z,101419.44
2024-02-03T20:30:39.137Z,101419.94
2024-02-03T20:33:09.130Z,101413.41
2024-02-03T20:35:39.173Z,101425.91
2024-02-03T20:38:12.153Z,101414.03
2024-02-03T20:40:45.510Z,101406.66
2024-02-03T20:43:19.147Z,101416.81
2024-02-03T20:45:51.893Z,101418.78
2024-02-03T20:48:22.301Z,101449.44
2024-02-03T20:50:52.495Z,101449.13
2024-02-03T20:53:25.235Z,101452.03
2024-02-03T20:55:55.515Z,101474.53
2024-02-03T20:58:25.532Z,101456.28
2024-02-03T21:00:55.545Z,101447.00
2024-02-03T21:03:25.961Z,101443.59
2024-02-03T21:05:56.170Z,101440.31
2024-02-03T21:08:28.799Z,101446.06
2024-02-03T21:10:58.963Z,101436.78
2024-02-03T21:13:29.671Z,101447.19
2024-02-03T21:15:59.600Z,101446.53
2024-02-03T21:18:29.690Z,101452.09
2024-02-03T21:20:59.740Z,101443.28
2024-02-03T21:23:32.289Z,101437.13
2024-02-03T21:26:02.083Z,101440.22
2024-02-03T21:28:31.891Z,101448.03
2024-02-03T21:31:01.842Z,101431.59
2024-02-03T21:33:31.734Z,101438.91
2024-02-03T21:36:01.696Z,101442.00
2024-02-03T21:38:34.435Z,101455.38
2024-02-03T21:41:04.480Z,101450.47
2024-02-03T21:43:34.336Z,101447.88
2024-02-03T21:46:04.765Z,101449.00
2024-02-03T21:48:36.165Z,101411.75
2024-02-03T21:51:06.153Z,101440.22
2024-02-03T21:53:38.580Z,101427.03
2024-02-03T21:56:08.986Z,101415.97
2024-02-03T21:58:38.924Z,101424.44
2024-02-03T22:01:08.900Z,101431.25
2024-02-03T22:03:39.280Z,101441.53
2024-02-03T22:06:10.320Z,101444.94
2024-02-03T22:08:42.710Z,101434.34
2024-02-03T22:11:12.856Z,101426.69
2024-02-03T22:13:42.943Z,101422.31
2024-02-03T22:16:12.910Z,101445.59
2024-02-03T22:18:42.760Z,101446.91
2024-02-03T22:21:12.660Z,101431.09
2024-02-03T22:23:45.514Z,101425.06
2024-02-03T22:26:15.461Z,101437.47
2024-02-03T22:28:45.352Z,101430.25
2024-02-03T22:31:15.108Z,101425.41
2024-02-03T22:33:44.995Z,101423.28
2024-02-03T22:36:15.134Z,101421.16
2024-02-03T22:38:47.527Z,101411.72
2024-02-03T22:41:17.473Z,101406.19
2024-02-03T22:43:47.324Z,101411.03
2024-02-03T22:46:17.919Z,101416.25
2024-02-03T22:48:48.065Z,101431.06
2024-02-03T22:51:18.014Z,101412.66
2024-02-03T22:53:50.422Z,101427.03
2024-02-03T22:56:20.252Z,101423.41
2024-02-03T22:58:50.186Z,101429.97
2024-02-03T23:01:20.095Z,101427.53
2024-02-03T23:03:50.150Z,101402.44
2024-02-03T23:06:20.037Z,101397.72
2024-02-03T23:08:53.639Z,101401.31
2024-02-03T23:11:23.892Z,101404.88
2024-02-03T23:13:53.690Z,101425.06
2024-02-03T23:16:23.600Z,101418.22
2024-02-03T23:18:53.514Z,101418.22
2024-02-03T23:21:24.381Z,101415.31
2024-02-03T23:23:56.994Z,101414.66
2024-02-03T23:26:27.081Z,101410.59
2024-02-03T23:28:57.248Z,101410.09
2024-02-03T23:31:28.117Z,101402.94
2024-02-03T23:33:59.324Z,101395.78
2024-02-03T23:36:30.003Z,101392.34
2024-02-03T23:39:03.447Z,101401.31
2024-02-03T23:41:33.247Z,101387.31
2024-02-03T23:44:04.936Z,101400.34
2024-02-03T23:46:35.577Z,101404.56
2024-02-03T23:49:06.537Z,101403.59
2024-02-03T23:51:36.410Z,101410.94
2024-02-03T23:54:10.039Z,101403.28
2024-02-03T23:56:40.208Z,101401.66
2024-02-03T23:59:10.058Z,101397.41
